sensor_id;sensor_type;location;lat;lon;timestamp;temperature;humidity
38239;DHT22;24035;48.900;9.188;2023-07-20T00:01:14;19.70;99.90
38239;DHT22;24035;48.900;9.188;2023-07-20T00:03:39;19.60;99.90
38239;DHT22;24035;48.900;9.188;2023-07-20T00:06:05;19.60;99.90
38239;DHT22;24035;48.900;9.188;2023-07-20T00:08:31;19.60;99.90
38239;DHT22;24035;48.900;9.188;2023-07-20T00:10:56;19.60;99.90
38239;DHT22;24035;48.900;9.188;2023-07-20T00:13:22;19.60;99.90
38239;DHT22;24035;48.900;9.188;2023-07-20T00:15:48;19.60;99.90
38239;DHT22;24035;48.900;9.188;2023-07-20T00:18:14;19.50;99.90
38239;DHT22;24035;48.900;9.188;2023-07-20T00:20:40;19.50;99.90
38239;DHT22;24035;48.900;9.188;2023-07-20T00:23:06;19.50;99.90
38239;DHT22;24035;48.900;9.188;2023-07-20T00:25:32;19.50;99.90
38239;DHT22;24035;48.900;9.188;2023-07-20T00:27:59;19.50;99.90
38239;DHT22;24035;48.900;9.188;2023-07-20T00:30:24;19.30;99.90
38239;DHT22;24035;48.900;9.188;2023-07-20T00:32:50;19.30;99.90
38239;DHT22;24035;48.900;9.188;2023-07-20T00:35:16;19.10;99.90
38239;DHT22;24035;48.900;9.188;2023-07-20T00:37:42;19.00;99.90
38239;DHT22;24035;48.900;9.188;2023-07-20T00:40:08;18.80;99.90
38239;DHT22;24035;48.900;9.188;2023-07-20T00:42:34;18.70;99.90
38239;DHT22;24035;48.900;9.188;2023-07-20T00:45:00;18.70;99.90
38239;DHT22;24035;48.900;9.188;2023-07-20T00:47:26;18.70;99.90
38239;DHT22;24035;48.900;9.188;2023-07-20T00:49:52;18.60;99.90
38239;DHT22;24035;48.900;9.188;2023-07-20T00:52:20;18.60;99.90
38239;DHT22;24035;48.900;9.188;2023-07-20T00:54:47;18.50;99.90
38239;DHT22;24035;48.900;9.188;2023-07-20T00:57:15;18.50;99.90
38239;DHT22;24035;48.900;9.188;2023-07-20T00:59:41;18.40;99.90
38239;DHT22;24035;48.900;9.188;2023-07-20T01:02:07;18.30;99.90
38239;DHT22;24035;48.900;9.188;2023-07-20T01:04:34;18.30;99.90
38239;DHT22;24035;48.900;9.188;2023-07-20T01:07:19;18.20;99.90
38239;DHT22;24035;48.900;9.188;2023-07-20T01:09:52;18.10;99.90
38239;DHT22;24035;48.900;9.188;2023-07-20T01:12:42;18.10;99.90
38239;DHT22;24035;48.900;9.188;2023-07-20T01:15:09;18.00;99.90
38239;DHT22;24035;48.900;9.188;2023-07-20T01:17:36;18.00;99.90
38239;DHT22;24035;48.900;9.188;2023-07-20T01:20:01;18.00;99.90
38239;DHT22;24035;48.900;9.188;2023-07-20T01:28:37;18.00;99.90
38239;DHT22;24035;48.900;9.188;2023-07-20T01:31:24;17.90;99.90
38239;DHT22;24035;48.900;9.188;2023-07-20T01:33:54;17.90;99.90
38239;DHT22;24035;48.900;9.188;2023-07-20T01:36:23;17.80;99.90
38239;DHT22;24035;48.900;9.188;2023-07-20T01:38:51;17.70;99.90
38239;DHT22;24035;48.900;9.188;2023-07-20T01:41:17;17.60;99.90
38239;DHT22;24035;48.900;9.188;2023-07-20T01:43:43;17.50;99.90
38239;DHT22;24035;48.900;9.188;2023-07-20T01:46:10;17.50;99.90
38239;DHT22;24035;48.900;9.188;2023-07-20T01:48:36;17.40;1.00
38239;DHT22;24035;48.900;9.188;2023-07-20T01:51:02;17.50;1.00
38239;DHT22;24035;48.900;9.188;2023-07-20T01:53:27;17.50;1.00
38239;DHT22;24035;48.900;9.188;2023-07-20T01:55:53;17.40;1.00
38239;DHT22;24035;48.900;9.188;2023-07-20T01:58:22;17.40;1.00
38239;DHT22;24035;48.900;9.188;2023-07-20T02:00:48;17.30;1.00
38239;DHT22;24035;48.900;9.188;2023-07-20T02:03:13;17.20;1.00
38239;DHT22;24035;48.900;9.188;2023-07-20T02:05:39;17.20;1.00
38239;DHT22;24035;48.900;9.188;2023-07-20T02:08:05;17.20;1.00
38239;DHT22;24035;48.900;9.188;2023-07-20T02:10:31;17.10;1.00
38239;DHT22;24035;48.900;9.188;2023-07-20T02:12:56;17.10;1.00
38239;DHT22;24035;48.900;9.188;2023-07-20T02:15:22;17.10;1.00
38239;DHT22;24035;48.900;9.188;2023-07-20T02:17:48;17.00;1.00
38239;DHT22;24035;48.900;9.188;2023-07-20T02:20:14;16.90;1.00
38239;DHT22;24035;48.900;9.188;2023-07-20T02:22:40;16.90;1.00
38239;DHT22;24035;48.900;9.188;2023-07-20T02:25:06;17.00;1.00
38239;DHT22;24035;48.900;9.188;2023-07-20T02:27:33;16.90;1.00
38239;DHT22;24035;48.900;9.188;2023-07-20T02:29:59;16.80;1.00
38239;DHT22;24035;48.900;9.188;2023-07-20T02:32:25;16.80;1.00
38239;DHT22;24035;48.900;9.188;2023-07-20T02:34:51;16.70;1.00
38239;DHT22;24035;48.900;9.188;2023-07-20T02:37:17;16.70;1.00
38239;DHT22;24035;48.900;9.188;2023-07-20T02:39:43;16.70;1.00
38239;DHT22;24035;48.900;9.188;2023-07-20T02:42:09;16.60;1.00
38239;DHT22;24035;48.900;9.188;2023-07-20T02:44:34;16.50;1.00
38239;DHT22;24035;48.900;9.188;2023-07-20T02:47:00;16.50;1.00
38239;DHT22;24035;48.900;9.188;2023-07-20T02:49:26;16.50;1.00
38239;DHT22;24035;48.900;9.188;2023-07-20T02:51:52;16.40;1.00
38239;DHT22;24035;48.900;9.188;2023-07-20T02:54:18;16.50;1.00
38239;DHT22;24035;48.900;9.188;2023-07-20T02:56:44;16.50;1.00
38239;DHT22;24035;48.900;9.188;2023-07-20T02:59:10;16.50;1.00
38239;DHT22;24035;48.900;9.188;2023-07-20T03:01:35;16.40;1.00
38239;DHT22;24035;48.900;9.188;2023-07-20T03:04:01;16.30;1.00
38239;DHT22;24035;48.900;9.188;2023-07-20T03:06:27;16.40;1.00
38239;DHT22;24035;48.900;9.188;2023-07-20T03:08:53;16.30;1.00
38239;DHT22;24035;48.900;9.188;2023-07-20T03:11:20;16.20;1.00
38239;DHT22;24035;48.900;9.188;2023-07-20T03:13:46;16.10;1.00
38239;DHT22;24035;48.900;9.188;2023-07-20T03:16:15;16.10;14.70
38239;DHT22;24035;48.900;9.188;2023-07-20T03:18:43;16.10;55.00
38239;DHT22;24035;48.900;9.188;2023-07-20T03:21:09;16.10;43.20
38239;DHT22;24035;48.900;9.188;2023-07-20T03:23:37;16.10;64.50
38239;DHT22;24035;48.900;9.188;2023-07-20T03:26:03;16.00;73.80
38239;DHT22;24035;48.900;9.188;2023-07-20T03:28:29;16.00;93.60
38239;DHT22;24035;48.900;9.188;2023-07-20T03:30:56;16.00;93.90
38239;DHT22;24035;48.900;9.188;2023-07-20T03:33:25;16.10;99.90
38239;DHT22;24035;48.900;9.188;2023-07-20T03:35:51;16.10;33.80
38239;DHT22;24035;48.900;9.188;2023-07-20T03:38:17;16.10;12.90
38239;DHT22;24035;48.900;9.188;2023-07-20T03:40:54;16.20;19.50
38239;DHT22;24035;48.900;9.188;2023-07-20T03:43:20;16.20;1.00
38239;DHT22;24035;48.900;9.188;2023-07-20T03:45:46;16.20;1.00
38239;DHT22;24035;48.900;9.188;2023-07-20T03:48:17;16.20;1.00
38239;DHT22;24035;48.900;9.188;2023-07-20T03:50:47;16.20;1.00
38239;DHT22;24035;48.900;9.188;2023-07-20T03:53:13;16.30;1.00
38239;DHT22;24035;48.900;9.188;2023-07-20T03:55:40;16.30;1.00
38239;DHT22;24035;48.900;9.188;2023-07-20T03:58:07;16.30;1.00
38239;DHT22;24035;48.900;9.188;2023-07-20T04:00:34;16.40;1.00
38239;DHT22;24035;48.900;9.188;2023-07-20T04:03:00;16.40;1.00
38239;DHT22;24035;48.900;9.188;2023-07-20T04:05:26;16.50;1.00
38239;DHT22;24035;48.900;9.188;2023-07-20T04:07:52;16.60;1.00
38239;DHT22;24035;48.900;9.188;2023-07-20T04:10:18;16.70;1.00
38239;DHT22;24035;48.900;9.188;2023-07-20T04:12:45;16.80;1.00
38239;DHT22;24035;48.900;9.188;2023-07-20T04:15:13;17.10;1.00
38239;DHT22;24035;48.900;9.188;2023-07-20T04:17:40;17.40;1.00
38239;DHT22;24035;48.900;9.188;2023-07-20T04:20:07;17.60;1.00
38239;DHT22;24035;48.900;9.188;2023-07-20T04:22:33;18.00;1.00
38239;DHT22;24035;48.900;9.188;2023-07-20T04:24:58;18.50;1.00
38239;DHT22;24035;48.900;9.188;2023-07-20T04:27:24;18.70;99.90
38239;DHT22;24035;48.900;9.188;2023-07-20T04:29:50;19.10;99.90
38239;DHT22;24035;48.900;9.188;2023-07-20T04:32:16;19.40;99.90
38239;DHT22;24035;48.900;9.188;2023-07-20T04:34:42;19.50;99.90
38239;DHT22;24035;48.900;9.188;2023-07-20T04:37:08;19.80;99.90
38239;DHT22;24035;48.900;9.188;2023-07-20T04:39:34;20.10;99.90
38239;DHT22;24035;48.900;9.188;2023-07-20T04:41:59;20.30;99.90
38239;DHT22;24035;48.900;9.188;2023-07-20T04:44:25;20.50;99.90
38239;DHT22;24035;48.900;9.188;2023-07-20T04:46:51;20.70;99.90
38239;DHT22;24035;48.900;9.188;2023-07-20T04:49:17;20.80;99.90
38239;DHT22;24035;48.900;9.188;2023-07-20T04:51:43;20.90;99.90
38239;DHT22;24035;48.900;9.188;2023-07-20T04:54:08;20.90;99.90
38239;DHT22;24035;48.900;9.188;2023-07-20T04:56:34;20.80;99.90
38239;DHT22;24035;48.900;9.188;2023-07-20T04:59:00;21.10;99.90
38239;DHT22;24035;48.900;9.188;2023-07-20T05:01:26;21.40;99.90
38239;DHT22;24035;48.900;9.188;2023-07-20T05:03:54;21.70;99.90
38239;DHT22;24035;48.900;9.188;2023-07-20T05:06:20;22.30;99.90
38239;DHT22;24035;48.900;9.188;2023-07-20T05:08:46;22.80;94.80
38239;DHT22;24035;48.900;9.188;2023-07-20T05:11:12;23.30;77.10
38239;DHT22;24035;48.900;9.188;2023-07-20T05:13:38;23.70;65.60
38239;DHT22;24035;48.900;9.188;2023-07-20T05:16:04;23.60;55.20
38239;DHT22;24035;48.900;9.188;2023-07-20T05:18:30;23.40;61.40
38239;DHT22;24035;48.900;9.188;2023-07-20T05:20:55;24.20;49.60
38239;DHT22;24035;48.900;9.188;2023-07-20T05:23:21;24.40;40.70
38239;DHT22;24035;48.900;9.188;2023-07-20T05:25:54;24.20;37.90
38239;DHT22;24035;48.900;9.188;2023-07-20T05:28:20;24.00;35.10
38239;DHT22;24035;48.900;9.188;2023-07-20T05:30:46;23.10;45.80
38239;DHT22;24035;48.900;9.188;2023-07-20T05:33:12;22.80;55.70
38239;DHT22;24035;48.900;9.188;2023-07-20T05:35:37;22.60;67.60
38239;DHT22;24035;48.900;9.188;2023-07-20T05:38:03;22.30;80.90
38239;DHT22;24035;48.900;9.188;2023-07-20T05:40:30;22.70;80.60
38239;DHT22;24035;48.900;9.188;2023-07-20T05:42:57;22.90;72.40
38239;DHT22;24035;48.900;9.188;2023-07-20T05:45:23;22.30;79.30
38239;DHT22;24035;48.900;9.188;2023-07-20T05:47:49;21.90;97.00
38239;DHT22;24035;48.900;9.188;2023-07-20T05:50:14;22.20;99.90
38239;DHT22;24035;48.900;9.188;2023-07-20T05:52:40;22.20;98.80
38239;DHT22;24035;48.900;9.188;2023-07-20T05:55:07;22.20;97.80
38239;DHT22;24035;48.900;9.188;2023-07-20T05:57:33;22.80;90.80
38239;DHT22;24035;48.900;9.188;2023-07-20T05:59:59;23.70;64.60
38239;DHT22;24035;48.900;9.188;2023-07-20T06:02:25;24.50;45.60
38239;DHT22;24035;48.900;9.188;2023-07-20T06:04:50;25.20;31.20
38239;DHT22;24035;48.900;9.188;2023-07-20T06:07:16;25.60;27.00
38239;DHT22;24035;48.900;9.188;2023-07-20T06:09:41;26.60;17.70
38239;DHT22;24035;48.900;9.188;2023-07-20T06:12:08;27.10;11.50
38239;DHT22;24035;48.900;9.188;2023-07-20T06:14:34;27.60;6.90
38239;DHT22;24035;48.900;9.188;2023-07-20T06:16:59;28.10;1.40
38239;DHT22;24035;48.900;9.188;2023-07-20T06:19:25;28.00;1.00
38239;DHT22;24035;48.900;9.188;2023-07-20T06:21:51;28.10;1.00
38239;DHT22;24035;48.900;9.188;2023-07-20T06:24:17;27.60;1.00
38239;DHT22;24035;48.900;9.188;2023-07-20T06:26:43;27.00;1.00
38239;DHT22;24035;48.900;9.188;2023-07-20T06:29:09;27.40;1.00
38239;DHT22;24035;48.900;9.188;2023-07-20T06:31:35;28.00;1.00
38239;DHT22;24035;48.900;9.188;2023-07-20T06:34:01;28.00;1.00
38239;DHT22;24035;48.900;9.188;2023-07-20T06:36:28;27.40;1.00
38239;DHT22;24035;48.900;9.188;2023-07-20T06:38:54;27.50;1.00
38239;DHT22;24035;48.900;9.188;2023-07-20T06:41:20;28.30;1.00
38239;DHT22;24035;48.900;9.188;2023-07-20T06:43:46;28.30;1.00
38239;DHT22;24035;48.900;9.188;2023-07-20T06:46:12;28.50;1.00
38239;DHT22;24035;48.900;9.188;2023-07-20T06:48:38;28.70;1.00
38239;DHT22;24035;48.900;9.188;2023-07-20T06:51:03;28.80;1.20
38239;DHT22;24035;48.900;9.188;2023-07-20T06:53:30;28.20;1.00
38239;DHT22;24035;48.900;9.188;2023-07-20T06:55:56;27.20;1.00
38239;DHT22;24035;48.900;9.188;2023-07-20T06:58:25;26.70;1.00
38239;DHT22;24035;48.900;9.188;2023-07-20T07:00:51;26.90;1.00
38239;DHT22;24035;48.900;9.188;2023-07-20T07:03:17;26.90;1.00
38239;DHT22;24035;48.900;9.188;2023-07-20T07:05:44;27.20;1.00
38239;DHT22;24035;48.900;9.188;2023-07-20T07:08:11;27.70;1.00
38239;DHT22;24035;48.900;9.188;2023-07-20T07:10:37;27.60;1.00
38239;DHT22;24035;48.900;9.188;2023-07-20T07:13:03;26.70;1.00
38239;DHT22;24035;48.900;9.188;2023-07-20T07:15:29;27.00;1.00
38239;DHT22;24035;48.900;9.188;2023-07-20T07:17:55;25.50;1.00
38239;DHT22;24035;48.900;9.188;2023-07-20T07:20:22;25.30;1.00
38239;DHT22;24035;48.900;9.188;2023-07-20T07:22:50;26.30;1.00
38239;DHT22;24035;48.900;9.188;2023-07-20T07:25:17;26.60;1.00
38239;DHT22;24035;48.900;9.188;2023-07-20T07:27:43;26.70;1.00
38239;DHT22;24035;48.900;9.188;2023-07-20T07:30:09;25.80;1.00
38239;DHT22;24035;48.900;9.188;2023-07-20T07:32:35;25.90;1.00
38239;DHT22;24035;48.900;9.188;2023-07-20T07:35:01;26.10;1.00
38239;DHT22;24035;48.900;9.188;2023-07-20T07:37:27;25.90;1.00
38239;DHT22;24035;48.900;9.188;2023-07-20T07:39:53;26.30;1.00
38239;DHT22;24035;48.900;9.188;2023-07-20T07:42:19;27.00;1.00
38239;DHT22;24035;48.900;9.188;2023-07-20T07:44:45;26.80;1.00
38239;DHT22;24035;48.900;9.188;2023-07-20T07:47:10;27.00;1.00
38239;DHT22;24035;48.900;9.188;2023-07-20T07:49:37;27.50;1.00
38239;DHT22;24035;48.900;9.188;2023-07-20T07:52:02;27.70;1.00
38239;DHT22;24035;48.900;9.188;2023-07-20T07:54:28;27.50;1.00
38239;DHT22;24035;48.900;9.188;2023-07-20T07:56:55;27.50;1.00
38239;DHT22;24035;48.900;9.188;2023-07-20T07:59:20;27.80;1.00
38239;DHT22;24035;48.900;9.188;2023-07-20T08:01:46;28.40;1.00
38239;DHT22;24035;48.900;9.188;2023-07-20T08:04:12;28.20;1.00
38239;DHT22;24035;48.900;9.188;2023-07-20T08:06:39;27.00;1.00
38239;DHT22;24035;48.900;9.188;2023-07-20T08:09:05;26.40;1.00
38239;DHT22;24035;48.900;9.188;2023-07-20T08:11:32;26.70;1.00
38239;DHT22;24035;48.900;9.188;2023-07-20T08:14:02;27.60;1.00
38239;DHT22;24035;48.900;9.188;2023-07-20T08:16:28;27.60;1.00
38239;DHT22;24035;48.900;9.188;2023-07-20T08:18:53;27.50;1.00
38239;DHT22;24035;48.900;9.188;2023-07-20T08:21:19;27.50;1.00
38239;DHT22;24035;48.900;9.188;2023-07-20T08:23:45;27.60;1.00
38239;DHT22;24035;48.900;9.188;2023-07-20T08:26:11;27.10;1.00
38239;DHT22;24035;48.900;9.188;2023-07-20T08:28:37;26.00;1.00
38239;DHT22;24035;48.900;9.188;2023-07-20T08:31:05;25.60;1.00
38239;DHT22;24035;48.900;9.188;2023-07-20T08:33:31;25.70;1.00
38239;DHT22;24035;48.900;9.188;2023-07-20T08:36:00;25.50;1.00
38239;DHT22;24035;48.900;9.188;2023-07-20T08:38:27;25.10;1.00
38239;DHT22;24035;48.900;9.188;2023-07-20T08:40:53;25.30;1.00
38239;DHT22;24035;48.900;9.188;2023-07-20T08:43:22;25.10;1.00
38239;DHT22;24035;48.900;9.188;2023-07-20T08:45:51;25.20;1.00
38239;DHT22;24035;48.900;9.188;2023-07-20T08:48:18;25.40;1.00
38239;DHT22;24035;48.900;9.188;2023-07-20T08:50:46;25.10;1.00
38239;DHT22;24035;48.900;9.188;2023-07-20T08:53:13;25.10;1.00
38239;DHT22;24035;48.900;9.188;2023-07-20T08:55:39;24.80;1.00
38239;DHT22;24035;48.900;9.188;2023-07-20T08:58:08;25.10;1.00
38239;DHT22;24035;48.900;9.188;2023-07-20T09:00:37;25.40;1.00
38239;DHT22;24035;48.900;9.188;2023-07-20T09:03:06;25.60;1.00
38239;DHT22;24035;48.900;9.188;2023-07-20T09:05:32;26.00;1.00
38239;DHT22;24035;48.900;9.188;2023-07-20T09:07:57;25.20;1.00
38239;DHT22;24035;48.900;9.188;2023-07-20T09:10:24;24.90;1.00
38239;DHT22;24035;48.900;9.188;2023-07-20T09:12:50;24.80;1.00
38239;DHT22;24035;48.900;9.188;2023-07-20T09:15:16;24.60;1.00
38239;DHT22;24035;48.900;9.188;2023-07-20T09:17:50;24.50;1.00
38239;DHT22;24035;48.900;9.188;2023-07-20T09:20:17;24.80;1.00
38239;DHT22;24035;48.900;9.188;2023-07-20T09:22:44;25.00;1.00
38239;DHT22;24035;48.900;9.188;2023-07-20T09:25:14;24.40;1.00
38239;DHT22;24035;48.900;9.188;2023-07-20T09:30:07;23.90;1.00
38239;DHT22;24035;48.900;9.188;2023-07-20T09:32:48;24.10;1.00
38239;DHT22;24035;48.900;9.188;2023-07-20T09:35:18;24.10;1.00
38239;DHT22;24035;48.900;9.188;2023-07-20T09:37:58;24.30;1.00
38239;DHT22;24035;48.900;9.188;2023-07-20T09:40:28;24.30;1.00
38239;DHT22;24035;48.900;9.188;2023-07-20T09:42:54;24.30;1.00
38239;DHT22;24035;48.900;9.188;2023-07-20T09:45:35;24.30;1.00
38239;DHT22;24035;48.900;9.188;2023-07-20T09:48:09;24.30;1.00
38239;DHT22;24035;48.900;9.188;2023-07-20T09:50:42;24.20;1.00
38239;DHT22;24035;48.900;9.188;2023-07-20T09:53:12;24.30;1.00
38239;DHT22;24035;48.900;9.188;2023-07-20T09:55:44;24.20;1.00
38239;DHT22;24035;48.900;9.188;2023-07-20T09:58:10;24.30;1.00
38239;DHT22;24035;48.900;9.188;2023-07-20T10:00:39;24.30;1.00
38239;DHT22;24035;48.900;9.188;2023-07-20T10:03:06;24.40;1.00
38239;DHT22;24035;48.900;9.188;2023-07-20T10:05:38;24.70;1.00
38239;DHT22;24035;48.900;9.188;2023-07-20T10:08:11;24.70;1.00
38239;DHT22;24035;48.900;9.188;2023-07-20T10:10:39;24.80;1.00
38239;DHT22;24035;48.900;9.188;2023-07-20T10:13:06;24.80;1.00
38239;DHT22;24035;48.900;9.188;2023-07-20T10:15:42;24.70;1.00
38239;DHT22;24035;48.900;9.188;2023-07-20T10:18:21;24.80;1.00
38239;DHT22;24035;48.900;9.188;2023-07-20T10:20:51;25.00;1.00
38239;DHT22;24035;48.900;9.188;2023-07-20T10:23:19;25.20;1.00
38239;DHT22;24035;48.900;9.188;2023-07-20T10:25:46;25.30;1.00
38239;DHT22;24035;48.900;9.188;2023-07-20T10:28:13;25.30;1.00
38239;DHT22;24035;48.900;9.188;2023-07-20T10:30:39;25.30;1.00
38239;DHT22;24035;48.900;9.188;2023-07-20T10:33:06;25.30;1.00
38239;DHT22;24035;48.900;9.188;2023-07-20T10:35:54;25.50;1.00
38239;DHT22;24035;48.900;9.188;2023-07-20T10:38:20;25.10;1.00
38239;DHT22;24035;48.900;9.188;2023-07-20T10:40:55;25.30;1.00
38239;DHT22;24035;48.900;9.188;2023-07-20T10:43:21;25.30;1.00
38239;DHT22;24035;48.900;9.188;2023-07-20T10:45:54;25.30;1.00
38239;DHT22;24035;48.900;9.188;2023-07-20T10:48:21;25.10;1.00
38239;DHT22;24035;48.900;9.188;2023-07-20T10:51:13;25.20;1.00
38239;DHT22;24035;48.900;9.188;2023-07-20T10:53:40;25.10;1.00
38239;DHT22;24035;48.900;9.188;2023-07-20T10:56:12;24.80;1.00
38239;DHT22;24035;48.900;9.188;2023-07-20T10:58:39;24.70;1.00
38239;DHT22;24035;48.900;9.188;2023-07-20T11:01:05;24.90;1.00
38239;DHT22;24035;48.900;9.188;2023-07-20T11:03:38;24.80;1.00
38239;DHT22;24035;48.900;9.188;2023-07-20T11:08:49;25.10;1.00
38239;DHT22;24035;48.900;9.188;2023-07-20T11:11:25;25.20;1.00
38239;DHT22;24035;48.900;9.188;2023-07-20T11:13:59;25.20;1.00
38239;DHT22;24035;48.900;9.188;2023-07-20T11:19:02;25.40;1.00
38239;DHT22;24035;48.900;9.188;2023-07-20T11:21:28;25.30;1.00
38239;DHT22;24035;48.900;9.188;2023-07-20T11:23:54;25.50;1.00
38239;DHT22;24035;48.900;9.188;2023-07-20T11:26:20;25.30;1.00
38239;DHT22;24035;48.900;9.188;2023-07-20T11:28:50;25.30;1.00
38239;DHT22;24035;48.900;9.188;2023-07-20T11:31:18;25.30;1.00
38239;DHT22;24035;48.900;9.188;2023-07-20T11:33:43;25.60;1.00
38239;DHT22;24035;48.900;9.188;2023-07-20T11:36:09;26.00;1.00
38239;DHT22;24035;48.900;9.188;2023-07-20T11:38:35;26.00;1.00
38239;DHT22;24035;48.900;9.188;2023-07-20T11:41:03;26.00;1.00
38239;DHT22;24035;48.900;9.188;2023-07-20T11:43:29;26.20;1.00
38239;DHT22;24035;48.900;9.188;2023-07-20T11:45:55;26.20;1.00
38239;DHT22;24035;48.900;9.188;2023-07-20T11:48:21;25.80;1.00
38239;DHT22;24035;48.900;9.188;2023-07-20T11:50:48;25.40;1.00
38239;DHT22;24035;48.900;9.188;2023-07-20T11:53:14;25.30;1.00
38239;DHT22;24035;48.900;9.188;2023-07-20T11:55:41;25.30;1.00
38239;DHT22;24035;48.900;9.188;2023-07-20T11:58:08;25.00;1.00
38239;DHT22;24035;48.900;9.188;2023-07-20T12:00:36;24.40;1.00
38239;DHT22;24035;48.900;9.188;2023-07-20T12:03:05;24.60;1.00
38239;DHT22;24035;48.900;9.188;2023-07-20T12:05:32;24.90;1.00
38239;DHT22;24035;48.900;9.188;2023-07-20T12:07:58;25.10;1.00
38239;DHT22;24035;48.900;9.188;2023-07-20T12:10:25;25.30;1.00
38239;DHT22;24035;48.900;9.188;2023-07-20T12:12:52;25.50;1.00
38239;DHT22;24035;48.900;9.188;2023-07-20T12:15:22;25.80;1.00
38239;DHT22;24035;48.900;9.188;2023-07-20T12:17:52;25.80;1.00
38239;DHT22;24035;48.900;9.188;2023-07-20T12:20:30;25.70;1.00
38239;DHT22;24035;48.900;9.188;2023-07-20T12:23:00;25.10;1.00
38239;DHT22;24035;48.900;9.188;2023-07-20T12:25:40;25.00;1.00
38239;DHT22;24035;48.900;9.188;2023-07-20T12:30:37;25.50;1.00
38239;DHT22;24035;48.900;9.188;2023-07-20T12:33:04;25.40;1.00
38239;DHT22;24035;48.900;9.188;2023-07-20T12:35:30;25.50;1.00
38239;DHT22;24035;48.900;9.188;2023-07-20T12:37:57;25.40;1.00
38239;DHT22;24035;48.900;9.188;2023-07-20T12:40:23;25.40;1.00
38239;DHT22;24035;48.900;9.188;2023-07-20T12:42:48;25.20;1.00
38239;DHT22;24035;48.900;9.188;2023-07-20T12:45:15;25.20;1.00
38239;DHT22;24035;48.900;9.188;2023-07-20T12:47:41;25.10;1.00
38239;DHT22;24035;48.900;9.188;2023-07-20T12:50:12;24.80;1.00
38239;DHT22;24035;48.900;9.188;2023-07-20T12:52:39;25.00;1.00
38239;DHT22;24035;48.900;9.188;2023-07-20T12:55:07;25.10;1.00
38239;DHT22;24035;48.900;9.188;2023-07-20T12:57:34;25.30;1.00
38239;DHT22;24035;48.900;9.188;2023-07-20T13:00:04;25.30;1.00
38239;DHT22;24035;48.900;9.188;2023-07-20T13:02:32;25.50;1.00
38239;DHT22;24035;48.900;9.188;2023-07-20T13:04:58;25.40;1.00
38239;DHT22;24035;48.900;9.188;2023-07-20T13:07:35;25.40;1.00
38239;DHT22;24035;48.900;9.188;2023-07-20T13:10:03;25.40;1.00
38239;DHT22;24035;48.900;9.188;2023-07-20T13:12:31;25.50;1.00
38239;DHT22;24035;48.900;9.188;2023-07-20T13:14:57;25.70;1.00
38239;DHT22;24035;48.900;9.188;2023-07-20T13:17:26;25.90;1.00
38239;DHT22;24035;48.900;9.188;2023-07-20T13:19:52;26.20;1.00
38239;DHT22;24035;48.900;9.188;2023-07-20T13:22:18;26.30;1.00
38239;DHT22;24035;48.900;9.188;2023-07-20T13:24:45;26.40;1.00
38239;DHT22;24035;48.900;9.188;2023-07-20T13:27:17;26.30;1.00
38239;DHT22;24035;48.900;9.188;2023-07-20T13:29:44;26.20;1.00
38239;DHT22;24035;48.900;9.188;2023-07-20T13:32:13;26.10;1.00
38239;DHT22;24035;48.900;9.188;2023-07-20T13:34:40;25.80;1.00
38239;DHT22;24035;48.900;9.188;2023-07-20T13:37:06;25.90;1.00
38239;DHT22;24035;48.900;9.188;2023-07-20T13:39:31;26.00;1.00
38239;DHT22;24035;48.900;9.188;2023-07-20T13:41:57;26.00;1.00
38239;DHT22;24035;48.900;9.188;2023-07-20T13:44:23;26.10;1.00
38239;DHT22;24035;48.900;9.188;2023-07-20T13:46:49;26.00;1.00
38239;DHT22;24035;48.900;9.188;2023-07-20T13:49:15;25.80;1.00
38239;DHT22;24035;48.900;9.188;2023-07-20T13:51:42;25.90;1.00
38239;DHT22;24035;48.900;9.188;2023-07-20T13:54:08;26.00;1.00
38239;DHT22;24035;48.900;9.188;2023-07-20T13:56:34;26.10;1.00
38239;DHT22;24035;48.900;9.188;2023-07-20T13:59:00;26.20;1.00
38239;DHT22;24035;48.900;9.188;2023-07-20T14:01:26;26.10;1.00
38239;DHT22;24035;48.900;9.188;2023-07-20T14:03:55;26.40;1.00
38239;DHT22;24035;48.900;9.188;2023-07-20T14:06:21;27.00;1.00
38239;DHT22;24035;48.900;9.188;2023-07-20T14:08:47;27.70;1.00
38239;DHT22;24035;48.900;9.188;2023-07-20T14:11:14;27.80;1.00
38239;DHT22;24035;48.900;9.188;2023-07-20T14:13:40;27.60;1.00
38239;DHT22;24035;48.900;9.188;2023-07-20T14:16:06;27.80;1.00
38239;DHT22;24035;48.900;9.188;2023-07-20T14:18:32;27.90;1.00
38239;DHT22;24035;48.900;9.188;2023-07-20T14:20:58;28.30;1.00
38239;DHT22;24035;48.900;9.188;2023-07-20T14:23:24;28.10;1.00
38239;DHT22;24035;48.900;9.188;2023-07-20T14:25:50;28.50;1.00
38239;DHT22;24035;48.900;9.188;2023-07-20T14:28:16;29.40;1.00
38239;DHT22;24035;48.900;9.188;2023-07-20T14:30:42;29.80;1.00
38239;DHT22;24035;48.900;9.188;2023-07-20T14:33:07;29.70;1.00
38239;DHT22;24035;48.900;9.188;2023-07-20T14:35:34;29.20;1.00
38239;DHT22;24035;48.900;9.188;2023-07-20T14:38:00;29.20;1.00
38239;DHT22;24035;48.900;9.188;2023-07-20T14:40:26;29.40;1.00
38239;DHT22;24035;48.900;9.188;2023-07-20T14:42:52;30.20;1.00
38239;DHT22;24035;48.900;9.188;2023-07-20T14:45:18;30.80;1.00
38239;DHT22;24035;48.900;9.188;2023-07-20T14:47:45;31.00;1.00
38239;DHT22;24035;48.900;9.188;2023-07-20T14:50:11;30.80;1.00
38239;DHT22;24035;48.900;9.188;2023-07-20T14:52:37;29.30;1.00
38239;DHT22;24035;48.900;9.188;2023-07-20T14:55:03;28.10;1.00
38239;DHT22;24035;48.900;9.188;2023-07-20T14:57:30;28.10;1.00
38239;DHT22;24035;48.900;9.188;2023-07-20T14:59:55;28.80;1.00
38239;DHT22;24035;48.900;9.188;2023-07-20T15:02:21;29.10;1.00
38239;DHT22;24035;48.900;9.188;2023-07-20T15:04:51;29.20;1.00
38239;DHT22;24035;48.900;9.188;2023-07-20T15:07:20;29.70;1.00
38239;DHT22;24035;48.900;9.188;2023-07-20T15:09:49;30.30;1.00
38239;DHT22;24035;48.900;9.188;2023-07-20T15:12:15;29.60;1.00
38239;DHT22;24035;48.900;9.188;2023-07-20T15:14:42;29.40;1.00
38239;DHT22;24035;48.900;9.188;2023-07-20T15:17:09;29.80;1.00
38239;DHT22;24035;48.900;9.188;2023-07-20T15:19:35;29.90;1.00
38239;DHT22;24035;48.900;9.188;2023-07-20T15:22:04;30.10;1.00
38239;DHT22;24035;48.900;9.188;2023-07-20T15:24:34;30.60;1.00
38239;DHT22;24035;48.900;9.188;2023-07-20T15:27:01;30.40;1.00
38239;DHT22;24035;48.900;9.188;2023-07-20T15:29:28;30.30;1.00
38239;DHT22;24035;48.900;9.188;2023-07-20T15:31:54;30.50;1.00
38239;DHT22;24035;48.900;9.188;2023-07-20T15:34:20;31.20;1.00
38239;DHT22;24035;48.900;9.188;2023-07-20T15:36:45;31.50;1.00
38239;DHT22;24035;48.900;9.188;2023-07-20T15:39:11;31.40;1.00
38239;DHT22;24035;48.900;9.188;2023-07-20T15:41:37;31.10;1.00
38239;DHT22;24035;48.900;9.188;2023-07-20T15:44:03;31.10;1.00
38239;DHT22;24035;48.900;9.188;2023-07-20T15:46:43;31.30;1.00
38239;DHT22;24035;48.900;9.188;2023-07-20T15:49:10;32.00;1.00
38239;DHT22;24035;48.900;9.188;2023-07-20T15:51:36;31.60;1.00
38239;DHT22;24035;48.900;9.188;2023-07-20T15:54:04;30.50;1.00
38239;DHT22;24035;48.900;9.188;2023-07-20T15:56:32;29.80;1.00
38239;DHT22;24035;48.900;9.188;2023-07-20T15:58:59;28.50;1.00